Honolulu, HI

05:38 AM HST del 25 Settembre 2016 (GMT -1000)
Nuuanu | | Change Station

Alt. 374 ft 21.33 °N, 157.84 °W | Updated 1 minute ago

Scattered Clouds
Nubi sparse
73.0 °F
Sembra 73 °F
N
2.0
Vento Variabile Vento da NNO

Oggi
Massima -- | Minima -- °F
--% Possibilità di precip.
Ieri
Massima -- | Minima -- °F
Precip. -- in
Pressione 30.01 in
Visibilità 10.0 miglia
Nuvole Alcuni 2500 ft
Nubi sparse 5500 ft
Indice di calore 73 °F
Punto di rugiada 66 °F
Umidità 81%
Piovosità 0.00 in
Spessore del manto nevoso Non disponibile.
6:21 AM 6:24 PM
Luna calante, 27% visible
METAR PHNL 251453Z 36003KT 10SM FEW025 SCT055 24/20 A3001 RMK AO2 SLP161 T02390200 53000
Pressione 30.01 in
Visibilità 10.0 miglia
Nuvole Alcuni 2500 ft
Nubi sparse 5500 ft
Indice di calore 73 °F
Punto di rugiada 66 °F
Umidità 81%
Piovosità 0.00 in
Spessore del manto nevoso Non disponibile.
6:21 AM 6:24 PM
Luna calante, 27% visible
METAR PHNL 251453Z 36003KT 10SM FEW025 SCT055 24/20 A3001 RMK AO2 SLP161 T02390200 53000

10-Day Weather Forecast

Almanac

Astronomia

Sep. 25, 2016 Alba Tramonto
Ora attuale
Crepuscolo civile
Crepuscolo nautico
Crepuscolo astronomico
Luna
Estensione della luce visibile
Lunghezza del giorno
Tomorrow will be .
, % of the Moon is Illuminated

Gli estremi di oggi

State Highs State Lows

Community

WunderPhotos

Upload Photos

1,941,644 foto caricate!

WunderBlog® & News

Nearby

Qualità dell'aria

  Qualità dell'aria Indice AQ Inquinante
Not available.

Profondità neve

Stazione Profondità Altitudine

Attività sismica

Città  Distanza Mag. Data & Ora
Minimo Magnitudo Mostrato è 2.5.

Temperature delle acque costiere

Località Temperatura

Stations

Stazioni meteo nelle vicinanze

Ubicazione della stazione Temp. Raffreddamento del vento Punto di rugiada Umidità Vento Precip. Alt. Aggiornato Tipo
                   

Watches & Warnings

There are currently no watches in effect.